createdAt,value
2022-11-08T00:00:05.618Z,33.43
2022-11-08T00:02:33.732Z,36.47
2022-11-08T00:05:18.935Z,37.17
2022-11-08T00:11:56.242Z,38.33
2022-11-08T00:14:24.140Z,36.87
2022-11-08T00:16:52.024Z,38.83
2022-11-08T00:19:19.918Z,38.43
2022-11-08T00:21:47.793Z,36.60
2022-11-08T00:24:15.616Z,36.67
2022-11-08T00:26:44.844Z,36.27
2022-11-08T00:29:12.733Z,36.23
2022-11-08T00:31:40.623Z,35.73
2022-11-08T00:34:08.494Z,36.83
2022-11-08T00:36:36.608Z,37.43
2022-11-08T00:39:04.638Z,36.27
2022-11-08T00:41:32.474Z,36.30
2022-11-08T00:44:01.705Z,36.20
2022-11-08T00:46:29.553Z,36.10
2022-11-08T00:48:57.403Z,35.60
2022-11-08T00:51:25.311Z,36.50
2022-11-08T00:53:53.152Z,35.87
2022-11-08T00:56:21.003Z,36.60
2022-11-08T00:58:48.911Z,35.63
2022-11-08T01:01:20.570Z,35.33
2022-11-08T01:03:49.919Z,36.10
2022-11-08T01:06:19.726Z,35.87
2022-11-08T01:08:47.984Z,35.93
2022-11-08T01:11:18.477Z,36.70
2022-11-08T01:13:46.597Z,35.83
2022-11-08T01:16:16.641Z,37.73
2022-11-08T01:18:46.971Z,38.53
2022-11-08T01:21:15.563Z,37.93
2022-11-08T01:23:45.368Z,37.73
2022-11-08T01:26:15.616Z,37.67
2022-11-08T01:28:43.814Z,38.97
2022-11-08T01:31:13.610Z,38.53
2022-11-08T01:33:42.951Z,37.40
2022-11-08T01:36:17.119Z,38.33
2022-11-08T01:38:45.240Z,36.37
2022-11-08T01:41:14.770Z,35.70
2022-11-08T01:43:45.621Z,35.90
2022-11-08T01:46:38.862Z,36.00
2022-11-08T01:49:44.348Z,35.83
2022-11-08T01:52:20.803Z,34.77
2022-11-08T01:54:57.086Z,34.83
2022-11-08T01:57:32.097Z,34.80
2022-11-08T02:00:05.377Z,36.10
2022-11-08T02:02:34.747Z,36.13
2022-11-08T02:05:04.041Z,35.40
2022-11-08T02:07:34.867Z,34.93
2022-11-08T02:10:03.991Z,35.17
2022-11-08T02:12:31.879Z,33.93
2022-11-08T02:15:00.480Z,34.27
2022-11-08T02:17:28.342Z,33.23
2022-11-08T02:19:56.182Z,33.07
2022-11-08T02:22:33.651Z,32.47
2022-11-08T02:25:03.757Z,32.57
2022-11-08T02:27:31.663Z,32.80
2022-11-08T02:29:59.546Z,32.97
2022-11-08T02:32:27.396Z,32.07
2022-11-08T02:34:58.557Z,32.87
2022-11-08T02:37:28.253Z,33.80
2022-11-08T02:39:56.090Z,35.00
2022-11-08T02:42:25.428Z,34.43
2022-11-08T02:44:53.314Z,35.33
2022-11-08T02:47:21.204Z,36.80
2022-11-08T02:49:49.054Z,35.23
2022-11-08T02:52:17.201Z,34.30
2022-11-08T02:54:45.054Z,34.73
2022-11-08T02:57:12.964Z,34.70
2022-11-08T02:59:42.175Z,35.33
2022-11-08T03:02:10.201Z,34.60
2022-11-08T03:04:38.136Z,34.63
2022-11-08T03:07:05.983Z,34.70
2022-11-08T03:09:33.843Z,34.60
2022-11-08T03:12:01.769Z,33.93
2022-11-08T03:14:29.612Z,34.57
2022-11-08T03:16:58.901Z,33.50
2022-11-08T03:19:26.779Z,34.60
2022-11-08T03:21:54.622Z,34.00
2022-11-08T03:24:22.483Z,34.57
2022-11-08T03:26:50.354Z,33.87
2022-11-08T03:29:18.200Z,34.67
2022-11-08T03:31:46.027Z,35.50
2022-11-08T03:34:15.374Z,34.93
2022-11-08T03:36:43.235Z,35.13
2022-11-08T03:39:11.568Z,34.70
2022-11-08T03:41:39.839Z,35.57
2022-11-08T03:44:07.750Z,35.30
2022-11-08T03:46:35.608Z,3.73
2022-11-08T03:49:03.443Z,4.00
2022-11-08T03:51:32.684Z,4.53
2022-11-08T03:54:00.539Z,5.13
2022-11-08T03:56:28.403Z,4.20
2022-11-08T03:58:56.243Z,3.23
2022-11-08T04:01:24.314Z,4.13
2022-11-08T04:03:52.288Z,4.60
2022-11-08T04:06:20.173Z,5.20
2022-11-08T04:08:49.419Z,5.17
2022-11-08T04:11:34.786Z,5.13
2022-11-08T04:14:20.066Z,3.70
2022-11-08T04:16:47.991Z,4.17
2022-11-08T04:19:33.171Z,4.47
2022-11-08T04:22:01.049Z,4.13
2022-11-08T04:24:30.275Z,4.63
2022-11-08T04:26:58.164Z,5.87
2022-11-08T04:29:26.063Z,5.80
2022-11-08T04:31:53.903Z,5.23
2022-11-08T04:34:21.916Z,4.83
2022-11-08T04:36:50.553Z,4.77
2022-11-08T04:39:19.088Z,4.63
2022-11-08T04:41:48.541Z,5.30
2022-11-08T04:44:18.403Z,6.43
2022-11-08T04:46:46.300Z,5.10
2022-11-08T04:49:14.135Z,4.73
2022-11-08T04:51:41.990Z,5.40
2022-11-08T04:54:11.843Z,4.20
2022-11-08T04:56:41.672Z,4.60
2022-11-08T04:59:12.207Z,5.80
2022-11-08T05:01:40.814Z,5.40
2022-11-08T05:04:08.847Z,5.03
2022-11-08T05:06:36.688Z,6.17
2022-11-08T05:09:04.730Z,4.33
2022-11-08T05:11:32.608Z,6.00
2022-11-08T05:14:00.438Z,5.33
2022-11-08T05:16:31.914Z,5.13
2022-11-08T05:19:00.482Z,4.33
2022-11-08T05:21:45.791Z,5.70
2022-11-08T05:24:16.291Z,5.60
2022-11-08T05:26:45.937Z,4.53
2022-11-08T05:29:15.412Z,5.53
2022-11-08T05:31:44.707Z,4.13
2022-11-08T05:34:12.647Z,5.90
2022-11-08T05:36:40.487Z,5.70
2022-11-08T05:39:08.327Z,5.43
2022-11-08T05:41:36.249Z,6.23
2022-11-08T05:44:04.116Z,5.97
2022-11-08T05:46:32.031Z,4.43
2022-11-08T05:49:01.530Z,4.87
2022-11-08T05:51:29.633Z,5.37
2022-11-08T05:53:57.488Z,5.87
2022-11-08T05:56:25.359Z,7.03
2022-11-08T05:58:53.209Z,4.73
2022-11-08T06:01:21.823Z,6.73
2022-11-08T06:03:49.801Z,6.03
2022-11-08T06:06:20.725Z,6.17
2022-11-08T06:08:50.588Z,5.27
2022-11-08T06:11:21.704Z,5.30
2022-11-08T06:13:49.660Z,4.50
2022-11-08T06:16:19.248Z,4.83
2022-11-08T06:18:47.206Z,5.53
2022-11-08T06:21:16.503Z,4.63
2022-11-08T06:23:46.135Z,4.80
2022-11-08T06:26:14.593Z,5.03
2022-11-08T06:28:42.686Z,5.70
2022-11-08T06:31:10.639Z,5.17
2022-11-08T06:33:38.526Z,4.97
2022-11-08T06:36:08.411Z,4.53
2022-11-08T06:38:36.563Z,5.30
2022-11-08T06:41:05.890Z,4.97
2022-11-08T06:43:34.148Z,4.63
2022-11-08T06:46:02.661Z,4.83
2022-11-08T06:48:35.336Z,4.03
2022-11-08T06:51:04.086Z,4.50
2022-11-08T06:53:32.147Z,4.40
2022-11-08T06:56:00.272Z,4.70
2022-11-08T06:58:29.591Z,5.13
2022-11-08T07:00:57.592Z,4.37
2022-11-08T07:03:25.555Z,3.67
2022-11-08T07:05:53.400Z,5.20
2022-11-08T07:08:24.077Z,3.93
2022-11-08T07:10:52.899Z,3.93
2022-11-08T07:13:21.439Z,3.47
2022-11-08T07:15:51.133Z,4.53
2022-11-08T07:18:20.627Z,3.00
2022-11-08T07:20:48.565Z,3.60
2022-11-08T07:23:16.784Z,3.77
2022-11-08T07:25:44.785Z,4.60
2022-11-08T07:28:17.040Z,4.70
2022-11-08T07:30:45.574Z,4.43
2022-11-08T07:33:16.732Z,5.20
2022-11-08T07:35:46.468Z,4.93
2022-11-08T07:38:14.594Z,4.90
2022-11-08T07:40:42.547Z,6.03
2022-11-08T07:43:12.261Z,5.23
2022-11-08T07:45:41.556Z,5.00
2022-11-08T07:48:12.824Z,5.53
2022-11-08T07:50:43.217Z,4.90
2022-11-08T07:53:11.933Z,5.10
2022-11-08T07:55:40.299Z,4.47
2022-11-08T07:58:09.319Z,5.17
2022-11-08T08:00:38.682Z,4.60
2022-11-08T08:03:09.578Z,5.03
2022-11-08T08:05:39.096Z,4.97
2022-11-08T08:08:08.935Z,5.27
2022-11-08T08:10:37.284Z,4.87
2022-11-08T08:13:06.209Z,4.03
2022-11-08T08:15:34.131Z,4.43
2022-11-08T08:18:03.231Z,4.83
2022-11-08T08:20:31.592Z,4.97
2022-11-08T08:23:00.525Z,4.50
2022-11-08T08:25:31.533Z,4.53
2022-11-08T08:28:01.825Z,5.03
2022-11-08T08:30:31.560Z,4.90
2022-11-08T08:33:34.293Z,4.90
2022-11-08T08:35:53.644Z,6.13
2022-11-08T08:38:21.759Z,3.70
2022-11-08T08:40:51.596Z,4.13
2022-11-08T08:43:20.306Z,4.30
2022-11-08T08:45:49.000Z,4.83
2022-11-08T08:48:16.953Z,4.03
2022-11-08T08:50:44.810Z,4.60
2022-11-08T08:53:12.666Z,4.93
2022-11-08T08:55:41.796Z,4.23
2022-11-08T08:58:12.085Z,3.63
2022-11-08T09:03:28.011Z,4.00
2022-11-08T09:05:58.274Z,4.60
2022-11-08T09:08:26.154Z,4.73
2022-11-08T09:10:55.452Z,4.13
2022-11-08T09:13:26.233Z,3.37
2022-11-08T09:15:54.451Z,4.07
2022-11-08T09:18:22.551Z,4.33
2022-11-08T09:20:50.567Z,5.13
2022-11-08T09:23:19.079Z,3.97
2022-11-08T09:25:47.114Z,4.13
2022-11-08T09:28:14.969Z,3.97
2022-11-08T09:30:44.230Z,3.90
2022-11-08T09:33:12.147Z,3.10
2022-11-08T09:35:40.028Z,5.50
2022-11-08T09:38:08.545Z,3.87
2022-11-08T09:40:41.189Z,3.73
2022-11-08T09:43:28.460Z,3.90
2022-11-08T09:45:58.030Z,4.53
2022-11-08T09:48:30.895Z,3.83
2022-11-08T09:51:05.116Z,3.67
2022-11-08T09:53:39.898Z,4.37
2022-11-08T09:56:14.890Z,3.67
2022-11-08T09:58:48.690Z,3.70
2022-11-08T10:01:18.529Z,4.73
2022-11-08T10:03:50.590Z,4.97
2022-11-08T10:06:31.342Z,4.37
2022-11-08T10:09:07.276Z,4.27
2022-11-08T10:11:47.226Z,3.60
2022-11-08T10:14:46.742Z,3.53
2022-11-08T10:17:35.495Z,3.27
2022-11-08T10:20:11.364Z,3.80
2022-11-08T10:22:50.831Z,3.93
2022-11-08T10:25:21.891Z,3.20
2022-11-08T10:27:52.445Z,3.63
2022-11-08T10:30:22.955Z,3.93
2022-11-08T10:32:55.340Z,4.63
2022-11-08T10:35:28.926Z,3.72
2022-11-08T10:38:00.192Z,3.35
2022-11-08T10:40:38.942Z,3.97
2022-11-08T10:43:11.846Z,4.95
2022-11-08T10:45:39.734Z,4.18
2022-11-08T10:48:12.187Z,7.80
2022-11-08T10:50:45.365Z,24.75
2022-11-08T10:53:20.626Z,22.55
2022-11-08T10:55:51.826Z,23.52
2022-11-08T10:58:37.367Z,25.17
2022-11-08T11:01:08.735Z,24.90
2022-11-08T11:03:37.947Z,25.60
2022-11-08T11:06:07.702Z,23.27
2022-11-08T11:08:35.728Z,26.10
2022-11-08T11:11:25.424Z,23.42
2022-11-08T11:14:16.419Z,21.23
2022-11-08T11:16:56.407Z,21.27
2022-11-08T11:19:27.254Z,20.50
2022-11-08T11:21:58.633Z,19.63
2022-11-08T11:24:26.781Z,19.63
2022-11-08T11:27:07.117Z,18.27
2022-11-08T11:29:36.671Z,18.10
2022-11-08T11:32:25.924Z,18.98
2022-11-08T11:34:57.449Z,19.42
2022-11-08T11:37:40.507Z,19.60
2022-11-08T11:40:18.542Z,19.27
2022-11-08T11:42:57.885Z,18.90
2022-11-08T11:45:32.004Z,18.60
2022-11-08T11:48:03.659Z,17.08
2022-11-08T11:50:36.237Z,15.95
2022-11-08T11:53:07.392Z,17.15
2022-11-08T11:55:48.908Z,17.88
2022-11-08T11:58:33.232Z,17.83
2022-11-08T12:01:14.043Z,18.17
2022-11-08T12:04:01.766Z,18.02
2022-11-08T12:06:44.042Z,19.47
2022-11-08T12:09:22.115Z,17.87
2022-11-08T12:12:04.830Z,18.13
2022-11-08T12:14:48.670Z,18.53
2022-11-08T12:17:47.081Z,17.67
2022-11-08T12:20:27.766Z,18.00
2022-11-08T12:23:12.454Z,17.47
2022-11-08T12:25:50.136Z,18.33
2022-11-08T12:28:42.089Z,17.40
2022-11-08T12:31:22.544Z,17.33
2022-11-08T12:34:00.833Z,17.70
2022-11-08T12:36:36.701Z,16.43
2022-11-08T12:39:22.142Z,15.60
2022-11-08T12:41:59.590Z,15.43
2022-11-08T12:45:00.126Z,14.90
2022-11-08T12:47:36.799Z,15.33
2022-11-08T12:50:18.936Z,16.17
2022-11-08T12:53:05.691Z,14.20
2022-11-08T12:55:37.606Z,14.20
2022-11-08T12:58:31.597Z,15.90
2022-11-08T13:01:06.692Z,16.63
2022-11-08T13:04:04.708Z,15.50
2022-11-08T13:06:42.053Z,17.00
2022-11-08T13:09:21.470Z,15.47
2022-11-08T13:12:01.298Z,14.60
2022-11-08T13:14:29.928Z,15.60
2022-11-08T13:17:23.052Z,15.63
2022-11-08T13:20:04.689Z,14.98
2022-11-08T13:23:01.416Z,14.77
2022-11-08T13:25:37.587Z,15.73
2022-11-08T13:28:41.977Z,16.20
2022-11-08T13:31:28.704Z,15.77
2022-11-08T13:34:12.385Z,15.45
2022-11-08T13:36:51.513Z,15.10
2022-11-08T13:39:33.232Z,15.50
2022-11-08T13:42:04.566Z,16.00
2022-11-08T13:45:14.272Z,15.57
2022-11-08T13:47:54.397Z,15.33
2022-11-08T13:50:47.903Z,16.40
2022-11-08T13:53:45.746Z,16.60
2022-11-08T13:56:27.239Z,16.80
2022-11-08T13:58:55.142Z,18.20
2022-11-08T14:01:52.744Z,17.70
2022-11-08T14:04:31.262Z,18.03
2022-11-08T14:07:06.222Z,16.93
2022-11-08T14:09:44.851Z,17.23
2022-11-08T14:12:17.116Z,17.17
2022-11-08T14:14:52.340Z,17.60
2022-11-08T14:17:38.375Z,19.77
2022-11-08T14:20:34.985Z,19.17
2022-11-08T14:23:15.919Z,18.37
2022-11-08T14:25:48.547Z,18.07
2022-11-08T14:28:24.398Z,17.43
2022-11-08T14:30:52.592Z,18.07
2022-11-08T14:33:22.795Z,17.63
2022-11-08T14:35:59.786Z,16.50
2022-11-08T14:38:28.767Z,16.37
2022-11-08T14:41:00.032Z,16.00
2022-11-08T14:43:28.729Z,16.10
2022-11-08T14:45:58.174Z,15.77
2022-11-08T14:48:29.654Z,18.43
2022-11-08T14:51:06.696Z,17.67
2022-11-08T14:53:45.359Z,18.07
2022-11-08T14:56:18.566Z,17.13
2022-11-08T14:58:47.633Z,18.10
2022-11-08T15:01:17.840Z,17.43
2022-11-08T15:03:49.073Z,16.70
2022-11-08T15:06:18.413Z,16.57
2022-11-08T15:08:52.388Z,18.73
2022-11-08T15:11:31.851Z,19.57
2022-11-08T15:14:03.241Z,19.67
2022-11-08T15:16:41.208Z,21.67
2022-11-08T15:19:21.679Z,17.50
2022-11-08T15:21:53.301Z,18.07
2022-11-08T15:24:30.437Z,19.47
2022-11-08T15:27:06.037Z,22.63
2022-11-08T15:29:49.709Z,23.57
2022-11-08T15:32:19.355Z,21.67
2022-11-08T15:34:48.331Z,27.13
2022-11-08T15:37:30.019Z,26.07
2022-11-08T15:40:02.668Z,28.60
2022-11-08T15:42:31.219Z,24.87
2022-11-08T15:45:01.042Z,24.37
2022-11-08T15:47:46.052Z,27.40
2022-11-08T15:50:17.293Z,28.23
2022-11-08T15:52:48.935Z,26.57
2022-11-08T15:55:19.211Z,27.03
2022-11-08T15:57:49.170Z,26.43
2022-11-08T16:00:19.364Z,24.90
2022-11-08T16:02:47.422Z,26.27
2022-11-08T16:05:17.395Z,26.40
2022-11-08T16:07:47.144Z,32.60
2022-11-08T16:10:17.521Z,32.40
2022-11-08T16:12:47.833Z,33.03
2022-11-08T16:15:18.788Z,31.87
2022-11-08T16:17:46.866Z,33.57
2022-11-08T16:20:21.278Z,26.80
2022-11-08T16:22:50.523Z,36.37
2022-11-08T16:25:18.666Z,40.07
2022-11-08T16:27:51.767Z,38.23
2022-11-08T16:30:19.979Z,39.87
2022-11-08T16:32:47.857Z,39.90
2022-11-08T16:35:16.378Z,27.87
2022-11-08T16:37:45.131Z,33.77
2022-11-08T16:40:22.868Z,34.83
2022-11-08T16:42:52.790Z,35.67
2022-11-08T16:45:43.474Z,39.90
2022-11-08T16:48:16.360Z,39.73
2022-11-08T16:50:44.687Z,32.20
2022-11-08T16:53:16.675Z,35.47
2022-11-08T16:55:46.304Z,34.57
2022-11-08T16:58:14.726Z,34.53
2022-11-08T17:00:44.119Z,36.67
2022-11-08T17:03:17.781Z,31.97
2022-11-08T17:05:45.655Z,34.53
2022-11-08T17:08:13.698Z,32.90
2022-11-08T17:10:41.866Z,29.13
2022-11-08T17:13:14.392Z,28.67
2022-11-08T17:15:42.274Z,26.30
2022-11-08T17:18:12.835Z,27.57
2022-11-08T17:20:40.818Z,25.53
2022-11-08T17:23:09.074Z,23.03
2022-11-08T17:25:38.244Z,23.03
2022-11-08T17:28:07.014Z,21.07
2022-11-08T17:30:37.054Z,22.20
2022-11-08T17:33:05.135Z,19.90
2022-11-08T17:35:32.992Z,19.80
2022-11-08T17:38:00.836Z,19.40
2022-11-08T17:40:28.678Z,19.60
2022-11-08T17:42:56.516Z,19.27
2022-11-08T17:45:24.362Z,19.17
2022-11-08T17:47:53.675Z,18.23
2022-11-08T17:50:21.495Z,19.00
2022-11-08T17:52:49.327Z,18.07
2022-11-08T17:55:17.536Z,18.40
2022-11-08T17:57:45.358Z,19.77
2022-11-08T18:00:14.575Z,20.00
2022-11-08T18:02:42.477Z,20.87
2022-11-08T18:05:11.786Z,20.00
2022-11-08T18:07:40.097Z,20.83
2022-11-08T18:10:09.331Z,20.63
2022-11-08T18:12:37.743Z,21.40
2022-11-08T18:15:07.242Z,19.07
2022-11-08T18:17:35.056Z,20.40
2022-11-08T18:20:02.944Z,21.03
2022-11-08T18:22:32.825Z,19.67
2022-11-08T18:25:00.635Z,19.60
2022-11-08T18:27:28.758Z,20.03
2022-11-08T18:29:56.606Z,18.57
2022-11-08T18:32:24.500Z,19.33
2022-11-08T18:34:52.357Z,19.93
2022-11-08T18:37:20.749Z,20.07
2022-11-08T18:39:49.920Z,21.93
2022-11-08T18:42:17.732Z,22.63
2022-11-08T18:44:45.609Z,23.90
2022-11-08T18:47:13.479Z,26.73
2022-11-08T18:49:41.346Z,24.80
2022-11-08T18:52:09.379Z,25.97
2022-11-08T18:54:37.291Z,38.60
2022-11-08T18:57:06.469Z,40.77
2022-11-08T18:59:34.465Z,39.87
2022-11-08T19:02:03.283Z,36.97
2022-11-08T19:04:31.178Z,39.13
2022-11-08T19:06:59.106Z,42.20
2022-11-08T19:09:26.954Z,50.87
2022-11-08T19:11:54.862Z,47.17
2022-11-08T19:14:24.230Z,45.03
2022-11-08T19:16:55.943Z,43.53
2022-11-08T19:19:24.533Z,42.30
2022-11-08T19:21:52.357Z,40.20
2022-11-08T19:24:20.322Z,37.23
2022-11-08T19:26:48.179Z,36.13
2022-11-08T19:29:16.079Z,40.67
2022-11-08T19:31:45.489Z,39.73
2022-11-08T19:34:13.822Z,40.23
2022-11-08T19:36:43.581Z,52.53
2022-11-08T19:39:12.507Z,47.80
2022-11-08T19:41:41.888Z,49.00
2022-11-08T19:44:10.795Z,55.20
2022-11-08T19:46:40.538Z,54.37
2022-11-08T19:49:11.167Z,53.97
2022-11-08T19:51:39.103Z,52.27
2022-11-08T19:54:08.754Z,49.57
2022-11-08T19:57:03.026Z,43.17
2022-11-08T19:59:25.954Z,43.67
2022-11-08T20:01:54.158Z,40.77
2022-11-08T20:04:23.367Z,40.00
2022-11-08T20:06:51.212Z,39.27
2022-11-08T20:09:19.227Z,44.93
2022-11-08T20:11:47.054Z,48.73
2022-11-08T20:14:15.269Z,81.80
2022-11-08T20:16:47.833Z,57.90
2022-11-08T20:19:18.955Z,47.83
2022-11-08T20:21:48.248Z,50.27
2022-11-08T20:24:16.748Z,51.20
2022-11-08T20:26:45.402Z,55.57
2022-11-08T20:29:14.772Z,53.10
2022-11-08T20:31:42.800Z,50.50
2022-11-08T20:34:12.780Z,50.97
2022-11-08T20:36:41.773Z,52.27
2022-11-08T20:39:12.135Z,49.27
2022-11-08T20:41:41.073Z,46.90
2022-11-08T20:44:10.662Z,55.97
2022-11-08T20:46:39.282Z,56.60
2022-11-08T20:49:07.658Z,57.27
2022-11-08T20:51:36.182Z,50.83
2022-11-08T20:54:04.610Z,61.20
2022-11-08T20:56:37.437Z,56.10
2022-11-08T20:59:05.654Z,55.00
2022-11-08T21:01:34.471Z,54.13
2022-11-08T21:04:02.923Z,54.53
2022-11-08T21:06:35.944Z,64.23
2022-11-08T21:09:30.110Z,67.33
2022-11-08T21:11:54.832Z,67.03
2022-11-08T21:14:23.836Z,65.87
2022-11-08T21:17:21.276Z,68.87
2022-11-08T21:19:39.916Z,74.17
2022-11-08T21:22:16.729Z,58.73
2022-11-08T21:24:47.690Z,60.30
2022-11-08T21:27:17.542Z,59.67
2022-11-08T21:29:45.343Z,58.40
2022-11-08T21:32:13.257Z,56.90
2022-11-08T21:34:45.636Z,50.90
2022-11-08T21:37:14.280Z,50.97
2022-11-08T21:39:42.176Z,60.20
2022-11-08T21:42:10.032Z,59.97
2022-11-08T21:44:39.279Z,60.60
2022-11-08T21:47:07.136Z,64.17
2022-11-08T21:49:35.006Z,61.63
2022-11-08T21:52:03.683Z,63.93
2022-11-08T21:54:31.593Z,66.33
2022-11-08T21:56:59.439Z,63.93
2022-11-08T21:59:27.427Z,61.23
2022-11-08T22:01:56.678Z,64.07
2022-11-08T22:04:24.537Z,65.97
2022-11-08T22:06:52.484Z,67.93
2022-11-08T22:09:20.479Z,65.97
2022-11-08T22:11:48.352Z,59.97
2022-11-08T22:14:16.321Z,61.50
2022-11-08T22:16:44.176Z,67.03
2022-11-08T22:19:13.926Z,74.70
2022-11-08T22:21:44.488Z,72.83
2022-11-08T22:24:13.857Z,73.67
2022-11-08T22:26:42.568Z,72.40
2022-11-08T22:29:10.516Z,72.30
2022-11-08T22:31:39.102Z,71.57
2022-11-08T22:34:08.574Z,75.83
2022-11-08T22:36:44.480Z,67.43
2022-11-08T22:39:13.945Z,71.57
2022-11-08T22:41:41.968Z,67.70
2022-11-08T22:44:12.455Z,63.53
2022-11-08T22:46:41.420Z,66.80
2022-11-08T22:49:09.639Z,63.77
2022-11-08T22:51:39.469Z,64.03
2022-11-08T22:54:08.104Z,65.67
2022-11-08T22:56:36.923Z,62.37
2022-11-08T22:59:05.207Z,63.47
2022-11-08T23:01:33.174Z,59.43
2022-11-08T23:04:01.199Z,56.73
2022-11-08T23:06:29.141Z,54.93
2022-11-08T23:08:58.591Z,54.27
2022-11-08T23:11:43.736Z,55.13
2022-11-08T23:14:35.453Z,56.67
2022-11-08T23:17:05.120Z,52.70
2022-11-08T23:19:50.931Z,55.80
2022-11-08T23:22:36.934Z,56.03
2022-11-08T23:25:07.249Z,58.47
2022-11-08T23:27:52.588Z,56.83
2022-11-08T23:30:38.058Z,53.40
2022-11-08T23:33:06.805Z,54.87
2022-11-08T23:35:34.985Z,58.40
2022-11-08T23:38:03.002Z,57.17
2022-11-08T23:40:49.763Z,57.83
2022-11-08T23:43:36.605Z,56.73
2022-11-08T23:46:08.841Z,57.87
2022-11-08T23:48:37.398Z,58.87
2022-11-08T23:51:06.008Z,57.60
2022-11-08T23:53:36.739Z,57.00
2022-11-08T23:56:07.355Z,55.30
2022-11-08T23:58:35.474Z,55.60
